ANA111 KORD-RJTT
Flight info
| Callsign | ANA111 |
|---|---|
| Flight time | N/A |
| Altitude | 16000 |
| Route | MCMLN DCT UMUZI V24 FARMM/N0418F180 DCT BESIE/N0405F160 V228 DLL/N0493F300 J538 DLH Q834 OTLUR/N0405F160 T810 KOBID T755 WAINN T682 EXDEE T639 YPE/N0494F320 J537 YYE/N0408F160 V326 YXY/N0492F320 Q811 IGSOM/N0485F340 DCT OMSUN NCA20 ELLAM DCT DDOUG DCT ISACC DCT KAYTI/N0403F160 V320 RUNTL/N0495F340 DCT NODLE R220 NICHO M523 HOWRR B757 NULUK/N0488F350 R220 NUZAN/N0491F360 R220 NOGAL/N0487F370 R220 NODAN/N0486F380 R220 NANAC Z22 MAMID Y889 LENVO ENTAK Y30 SWAMP POLIX |
| Aircraft | B77W/H-SDE1E2E3FGHIJ2J3J4J5M1RWXY/LB1D1 |
Departure
| Time | 2026-05-08 07:37 |
|---|---|
| Airport | Chicago O'Hare International Airport (KORD) |
Arrival
| Time | N/A |
|---|---|
| Airport | Tokyo Haneda International Airport (RJTT) |
| Time | Latitude | Longitude | Altitude | Speed | Heading |
|---|---|---|---|---|---|
| 2026-05-08 07:14 | 41.97330 | -87.88877 | 682 ft | 0 kts | 359° |
| 2026-05-08 07:22 | 41.97317 | -87.88877 | 681 ft | 2 kts | 359° |
| 2026-05-08 07:23 | 41.97301 | -87.88877 | 681 ft | 2 kts | 359° |
| 2026-05-08 07:23 | 41.97287 | -87.88876 | 681 ft | 2 kts | 360° |
| 2026-05-08 07:23 | 41.97277 | -87.88876 | 681 ft | 2 kts | 359° |
| 2026-05-08 07:23 | 41.97263 | -87.88872 | 681 ft | 2 kts | 326° |
| 2026-05-08 07:24 | 41.97253 | -87.88858 | 681 ft | 2 kts | 296° |
| 2026-05-08 07:24 | 41.97248 | -87.88841 | 681 ft | 1 kts | 271° |
| 2026-05-08 07:24 | 41.97248 | -87.88834 | 681 ft | 0 kts | 268° |
| 2026-05-08 07:27 | 41.97248 | -87.88863 | 681 ft | 7 kts | 268° |
| 2026-05-08 07:28 | 41.97250 | -87.88976 | 681 ft | 16 kts | 271° |
| 2026-05-08 07:28 | 41.97251 | -87.89133 | 681 ft | 15 kts | 269° |
| 2026-05-08 07:28 | 41.97247 | -87.89256 | 681 ft | 11 kts | 254° |
| 2026-05-08 07:28 | 41.97204 | -87.89311 | 681 ft | 6 kts | 213° |
| 2026-05-08 07:29 | 41.97183 | -87.89351 | 681 ft | 5 kts | 250° |
| 2026-05-08 07:29 | 41.97155 | -87.89401 | 681 ft | 8 kts | 211° |
| 2026-05-08 07:29 | 41.97091 | -87.89440 | 681 ft | 11 kts | 234° |
| 2026-05-08 07:29 | 41.97082 | -87.89503 | 681 ft | 0 kts | 278° |
| 2026-05-08 07:30 | 41.97091 | -87.89545 | 681 ft | 10 kts | 292° |
| 2026-05-08 07:30 | 41.97161 | -87.89645 | 681 ft | 16 kts | 298° |
| 2026-05-08 07:30 | 41.97147 | -87.89782 | 681 ft | 15 kts | 248° |
| 2026-05-08 07:30 | 41.97120 | -87.89933 | 681 ft | 17 kts | 268° |
| 2026-05-08 07:31 | 41.97102 | -87.90091 | 681 ft | 15 kts | 221° |
| 2026-05-08 07:31 | 41.97030 | -87.90173 | 681 ft | 12 kts | 255° |
| 2026-05-08 07:31 | 41.97023 | -87.90295 | 681 ft | 14 kts | 268° |
| 2026-05-08 07:31 | 41.97023 | -87.90441 | 681 ft | 16 kts | 270° |
| 2026-05-08 07:32 | 41.97023 | -87.90609 | 681 ft | 19 kts | 270° |
| 2026-05-08 07:32 | 41.97024 | -87.90797 | 681 ft | 21 kts | 270° |
| 2026-05-08 07:32 | 41.97023 | -87.91000 | 681 ft | 22 kts | 269° |
| 2026-05-08 07:32 | 41.97023 | -87.91218 | 681 ft | 22 kts | 270° |
| 2026-05-08 07:33 | 41.97023 | -87.91408 | 681 ft | 18 kts | 270° |
| 2026-05-08 07:33 | 41.97023 | -87.91579 | 681 ft | 18 kts | 270° |
| 2026-05-08 07:33 | 41.97024 | -87.91762 | 681 ft | 20 kts | 270° |
| 2026-05-08 07:33 | 41.97024 | -87.91961 | 681 ft | 22 kts | 270° |
| 2026-05-08 07:34 | 41.97022 | -87.92176 | 681 ft | 23 kts | 269° |
| 2026-05-08 07:34 | 41.97021 | -87.92403 | 681 ft | 23 kts | 270° |
| 2026-05-08 07:34 | 41.97021 | -87.92612 | 681 ft | 20 kts | 270° |
| 2026-05-08 07:34 | 41.97022 | -87.92790 | 681 ft | 17 kts | 270° |
| 2026-05-08 07:35 | 41.97021 | -87.92940 | 681 ft | 14 kts | 269° |
| 2026-05-08 07:35 | 41.97015 | -87.93063 | 681 ft | 11 kts | 249° |
| 2026-05-08 07:35 | 41.96954 | -87.93109 | 681 ft | 9 kts | 185° |
| 2026-05-08 07:35 | 41.96896 | -87.93098 | 681 ft | 7 kts | 140° |
| 2026-05-08 07:36 | 41.96886 | -87.93072 | 681 ft | 0 kts | 98° |
| 2026-05-08 07:36 | 41.96885 | -87.93053 | 681 ft | 4 kts | 96° |
| 2026-05-08 07:36 | 41.96881 | -87.92812 | 681 ft | 56 kts | 90° |
| 2026-05-08 07:37 | 41.96881 | -87.91994 | 681 ft | 117 kts | 90° |
| 2026-05-08 07:37 | 41.96888 | -87.90650 | 682 ft | 170 kts | 90° |
| 2026-05-08 07:37 | 41.96904 | -87.88873 | 906 ft | 196 kts | 86° |
| 2026-05-08 07:37 | 41.97171 | -87.87089 | 1516 ft | 198 kts | 60° |
| 2026-05-08 07:38 | 41.97987 | -87.85651 | 2038 ft | 198 kts | 33° |
| 2026-05-08 07:38 | 41.99320 | -87.84970 | 2111 ft | 216 kts | 359° |
| 2026-05-08 07:38 | 42.00802 | -87.85540 | 2257 ft | 233 kts | 328° |
| 2026-05-08 07:38 | 42.02187 | -87.86742 | 2715 ft | 244 kts | 327° |
| 2026-05-08 07:39 | 42.03625 | -87.88015 | 3307 ft | 249 kts | 327° |
| 2026-05-08 07:39 | 42.05067 | -87.89294 | 3979 ft | 251 kts | 326° |
| 2026-05-08 07:39 | 42.06524 | -87.90587 | 4672 ft | 251 kts | 325° |
| 2026-05-08 07:39 | 42.07985 | -87.91885 | 5342 ft | 252 kts | 324° |
| 2026-05-08 07:40 | 42.09449 | -87.93185 | 5999 ft | 253 kts | 323° |
| 2026-05-08 07:40 | 42.10931 | -87.94504 | 6630 ft | 255 kts | 323° |
| 2026-05-08 07:40 | 42.12391 | -87.95802 | 7313 ft | 253 kts | 322° |
| 2026-05-08 07:40 | 42.13866 | -87.97115 | 7981 ft | 253 kts | 322° |
| 2026-05-08 07:41 | 42.15311 | -87.98402 | 8584 ft | 254 kts | 322° |
| 2026-05-08 07:41 | 42.16794 | -87.99725 | 9206 ft | 254 kts | 322° |
| 2026-05-08 07:41 | 42.18251 | -88.01023 | 9840 ft | 253 kts | 322° |
| 2026-05-08 07:41 | 42.19728 | -88.02341 | 10384 ft | 255 kts | 322° |